createdAt,value
2018-11-21T00:01:32.543Z,21.80
2018-11-21T00:03:38.997Z,19.80
2018-11-21T00:05:45.075Z,23.77
2018-11-21T00:07:51.187Z,22.77
2018-11-21T00:09:57.231Z,19.53
2018-11-21T00:12:03.502Z,18.63
2018-11-21T00:14:10.784Z,19.20
2018-11-21T00:16:17.274Z,21.07
2018-11-21T00:18:23.357Z,27.63
2018-11-21T00:20:29.431Z,21.90
2018-11-21T00:22:35.951Z,20.23
2018-11-21T00:24:42.010Z,19.37
2018-11-21T00:26:48.170Z,19.63
2018-11-21T00:28:54.268Z,19.63
2018-11-21T00:31:00.702Z,17.97
2018-11-21T00:33:06.773Z,19.07
2018-11-21T00:35:12.838Z,20.17
2018-11-21T00:37:19.846Z,21.47
2018-11-21T00:39:25.891Z,22.63
2018-11-21T00:41:32.302Z,19.50
2018-11-21T00:43:38.312Z,19.57
2018-11-21T00:45:44.347Z,19.80
2018-11-21T00:47:50.648Z,23.07
2018-11-21T00:49:56.731Z,20.47
2018-11-21T00:52:03.124Z,20.40
2018-11-21T00:54:09.561Z,20.00
2018-11-21T00:56:15.962Z,22.13
2018-11-21T00:58:22.377Z,18.77
2018-11-21T01:00:28.547Z,17.10
2018-11-21T01:02:35.607Z,18.57
2018-11-21T01:04:40.065Z,21.73
2018-11-21T01:06:46.120Z,20.63
2018-11-21T01:08:52.188Z,20.37
2018-11-21T01:10:58.250Z,19.33
2018-11-21T01:13:04.380Z,19.97
2018-11-21T01:15:11.165Z,17.33
2018-11-21T01:17:17.237Z,20.00
2018-11-21T01:19:23.424Z,18.50
2018-11-21T01:21:29.568Z,18.67
2018-11-21T01:23:35.620Z,20.20
2018-11-21T01:25:41.656Z,19.37
2018-11-21T01:27:47.791Z,17.77
2018-11-21T01:29:53.840Z,20.70
2018-11-21T01:31:59.902Z,18.67
2018-11-21T01:34:06.102Z,18.60
2018-11-21T01:36:12.477Z,20.47
2018-11-21T01:38:18.758Z,18.50
2018-11-21T01:40:24.815Z,22.30
2018-11-21T01:42:30.875Z,15.90
2018-11-21T01:44:36.907Z,19.63
2018-11-21T01:46:43.332Z,20.87
2018-11-21T01:48:49.527Z,18.67
2018-11-21T01:50:55.547Z,15.40
2018-11-21T01:53:01.620Z,16.00
2018-11-21T01:55:08.133Z,17.07
2018-11-21T01:57:14.172Z,17.30
2018-11-21T01:59:20.328Z,20.47
2018-11-21T02:01:26.365Z,19.73
2018-11-21T02:03:32.498Z,20.43
2018-11-21T02:05:38.551Z,21.23
2018-11-21T02:07:44.684Z,18.83
2018-11-21T02:09:50.765Z,19.20
2018-11-21T02:11:56.790Z,18.73
2018-11-21T02:14:02.840Z,18.80
2018-11-21T02:16:09.316Z,18.57
2018-11-21T02:18:15.437Z,20.40
2018-11-21T02:22:30.286Z,18.90
2018-11-21T02:24:36.319Z,21.60
2018-11-21T02:26:42.352Z,25.67
2018-11-21T02:28:48.659Z,19.07
2018-11-21T02:30:54.820Z,22.07
2018-11-21T02:33:01.307Z,20.30
2018-11-21T02:35:08.849Z,18.70
2018-11-21T02:37:15.007Z,20.10
2018-11-21T02:39:21.074Z,19.93
2018-11-21T02:41:27.146Z,20.70
2018-11-21T02:43:33.177Z,20.00
2018-11-21T02:45:39.281Z,21.47
2018-11-21T02:47:45.299Z,22.37
2018-11-21T02:49:51.817Z,20.50
2018-11-21T02:51:57.869Z,21.27
2018-11-21T02:54:03.974Z,20.13
2018-11-21T02:56:10.834Z,21.20
2018-11-21T02:58:16.880Z,17.17
2018-11-21T03:00:25.623Z,18.77
2018-11-21T03:02:31.717Z,16.90
2018-11-21T03:04:37.753Z,21.00
2018-11-21T03:06:44.580Z,19.97
2018-11-21T03:08:50.619Z,21.67
2018-11-21T03:10:56.824Z,21.40
2018-11-21T03:13:02.887Z,21.67
2018-11-21T03:15:08.962Z,22.40
2018-11-21T03:17:15.035Z,20.80
2018-11-21T03:19:21.103Z,19.70
2018-11-21T03:21:27.170Z,19.40
2018-11-21T03:23:33.259Z,18.30
2018-11-21T03:25:39.297Z,19.27
2018-11-21T03:27:45.844Z,19.00
2018-11-21T03:29:51.871Z,18.43
2018-11-21T03:31:57.943Z,18.73
2018-11-21T03:34:04.108Z,19.00
2018-11-21T03:36:10.150Z,18.67
2018-11-21T03:38:16.331Z,18.97
2018-11-21T03:40:22.363Z,16.70
2018-11-21T03:42:28.722Z,21.13
2018-11-21T03:44:35.001Z,20.43
2018-11-21T03:46:41.035Z,19.70
2018-11-21T03:48:47.755Z,18.47
2018-11-21T03:50:53.803Z,18.93
2018-11-21T03:52:59.930Z,19.50
2018-11-21T03:55:06.861Z,24.33
2018-11-21T03:57:12.932Z,19.27
2018-11-21T03:59:19.213Z,22.53
2018-11-21T04:01:25.436Z,22.27
2018-11-21T04:03:31.471Z,21.93
2018-11-21T04:05:38.218Z,18.33
2018-11-21T04:07:44.251Z,20.43
2018-11-21T04:09:50.332Z,18.80
2018-11-21T04:11:56.352Z,17.70
2018-11-21T04:14:02.393Z,18.83
2018-11-21T04:16:08.533Z,19.53
2018-11-21T04:18:14.570Z,17.87
2018-11-21T04:20:20.588Z,17.07
2018-11-21T04:22:26.640Z,22.77
2018-11-21T04:24:32.677Z,18.23
2018-11-21T04:26:39.184Z,21.43
2018-11-21T04:28:45.232Z,17.00
2018-11-21T04:30:51.547Z,19.37
2018-11-21T04:32:57.567Z,18.03
2018-11-21T04:35:03.903Z,21.80
2018-11-21T04:37:08.399Z,20.10
2018-11-21T04:39:14.848Z,19.03
2018-11-21T04:41:21.173Z,21.77
2018-11-21T04:43:27.549Z,20.63
2018-11-21T04:45:33.599Z,17.27
2018-11-21T04:47:39.642Z,20.97
2018-11-21T04:49:45.711Z,23.03
2018-11-21T04:51:51.759Z,20.83
2018-11-21T04:53:58.060Z,21.13
2018-11-21T04:56:04.149Z,22.30
2018-11-21T04:58:10.241Z,22.17
2018-11-21T05:00:17.631Z,21.20
2018-11-21T05:02:22.192Z,21.67
2018-11-21T05:04:29.026Z,19.20
2018-11-21T05:06:35.101Z,19.50
2018-11-21T05:08:41.265Z,20.47
2018-11-21T05:10:47.416Z,20.82
2018-11-21T05:12:53.523Z,27.03
2018-11-21T05:14:59.538Z,26.60
2018-11-21T05:17:05.968Z,21.43
2018-11-21T05:19:12.040Z,21.37
2018-11-21T05:21:18.452Z,21.75
2018-11-21T05:23:24.520Z,21.62
2018-11-21T05:25:30.626Z,18.37
2018-11-21T05:27:36.732Z,21.15
2018-11-21T05:29:42.822Z,22.90
2018-11-21T05:31:48.907Z,35.85
2018-11-21T05:33:54.975Z,24.40
2018-11-21T05:36:01.227Z,19.92
2018-11-21T05:38:07.668Z,23.98
2018-11-21T05:40:14.043Z,24.53
2018-11-21T05:42:20.345Z,24.20
2018-11-21T05:44:31.239Z,20.40
2018-11-21T05:46:32.521Z,23.60
2018-11-21T05:48:38.671Z,18.98
2018-11-21T05:50:44.712Z,20.65
2018-11-21T05:52:50.777Z,19.80
2018-11-21T05:54:57.165Z,21.48
2018-11-21T05:57:03.343Z,28.50
2018-11-21T05:59:09.406Z,17.90
2018-11-21T06:01:15.490Z,21.55
2018-11-21T06:03:21.691Z,26.62
2018-11-21T06:05:26.221Z,22.00
2018-11-21T06:07:32.365Z,16.90
2018-11-21T06:09:38.590Z,19.07
2018-11-21T06:11:45.280Z,18.35
2018-11-21T06:13:51.393Z,19.55
2018-11-21T06:15:57.644Z,20.72
2018-11-21T06:18:03.717Z,19.35
2018-11-21T06:20:12.972Z,24.50
2018-11-21T06:22:19.053Z,17.77
2018-11-21T06:24:25.144Z,21.57
2018-11-21T06:26:31.192Z,19.82
2018-11-21T06:28:37.924Z,19.37
2018-11-21T06:30:43.969Z,19.20
2018-11-21T06:32:50.035Z,20.52
2018-11-21T06:34:56.075Z,37.33
2018-11-21T06:37:02.155Z,29.85
2018-11-21T06:39:08.769Z,36.95
2018-11-21T06:41:14.849Z,32.23
2018-11-21T06:43:20.975Z,30.68
2018-11-21T06:45:28.388Z,23.12
2018-11-21T06:47:34.541Z,26.60
2018-11-21T06:49:41.280Z,25.88
2018-11-21T06:51:47.535Z,36.83
2018-11-21T06:53:53.617Z,31.47
2018-11-21T06:55:59.876Z,25.25
2018-11-21T06:58:06.469Z,26.60
2018-11-21T07:00:13.206Z,23.90
2018-11-21T07:02:20.000Z,24.37
2018-11-21T07:04:26.069Z,24.90
2018-11-21T07:06:32.245Z,27.30
2018-11-21T07:08:38.390Z,25.70
2018-11-21T07:10:44.461Z,26.75
2018-11-21T07:12:50.507Z,28.00
2018-11-21T07:14:56.566Z,27.97
2018-11-21T07:17:02.814Z,24.63
2018-11-21T07:19:08.905Z,31.37
2018-11-21T07:21:15.227Z,28.13
2018-11-21T07:23:21.319Z,27.20
2018-11-21T07:25:27.462Z,25.40
2018-11-21T07:27:33.582Z,25.90
2018-11-21T07:29:39.770Z,23.43
2018-11-21T07:31:45.858Z,21.80
2018-11-21T07:33:51.921Z,25.17
2018-11-21T07:35:58.072Z,26.33
2018-11-21T07:38:04.162Z,25.03
2018-11-21T07:40:12.532Z,28.80
2018-11-21T07:42:18.774Z,24.33
2018-11-21T07:44:24.876Z,26.33
2018-11-21T07:46:30.919Z,24.93
2018-11-21T07:48:36.958Z,22.10
2018-11-21T07:50:43.087Z,26.93
2018-11-21T07:52:49.227Z,25.60
2018-11-21T07:54:55.293Z,25.50
2018-11-21T07:57:31.350Z,25.10
2018-11-21T07:59:39.975Z,22.27
2018-11-21T08:01:54.776Z,25.97
2018-11-21T08:04:22.127Z,25.90
2018-11-21T08:06:53.470Z,22.10
2018-11-21T08:09:22.479Z,23.27
2018-11-21T08:11:58.359Z,21.97
2018-11-21T08:14:29.221Z,22.67
2018-11-21T08:16:52.813Z,24.97
2018-11-21T08:19:26.869Z,19.77
2018-11-21T08:21:51.905Z,22.47
2018-11-21T08:24:16.165Z,20.47
2018-11-21T08:26:27.372Z,23.00
2018-11-21T08:28:33.439Z,26.67
2018-11-21T08:34:51.565Z,22.37
2018-11-21T08:36:57.692Z,19.97
2018-11-21T08:39:06.089Z,23.27
2018-11-21T08:41:12.179Z,28.07
2018-11-21T08:43:18.447Z,24.83
2018-11-21T08:45:24.492Z,26.30
2018-11-21T08:47:30.629Z,20.53
2018-11-21T08:49:36.781Z,29.33
2018-11-21T08:51:42.903Z,22.77
2018-11-21T08:53:49.078Z,24.57
2018-11-21T08:55:55.132Z,24.17
2018-11-21T08:58:01.484Z,23.03
2018-11-21T09:00:11.340Z,23.33
2018-11-21T09:02:17.508Z,25.67
2018-11-21T09:04:24.261Z,26.20
2018-11-21T09:06:30.360Z,25.17
2018-11-21T09:08:36.497Z,26.37
2018-11-21T09:10:42.614Z,25.37
2018-11-21T09:12:48.661Z,27.47
2018-11-21T09:14:54.751Z,24.93
2018-11-21T09:17:01.128Z,27.03
2018-11-21T09:19:07.194Z,26.60
2018-11-21T09:21:13.259Z,25.50
2018-11-21T09:23:19.319Z,21.87
2018-11-21T09:25:25.447Z,23.07
2018-11-21T09:27:32.325Z,24.23
2018-11-21T09:29:38.419Z,22.60
2018-11-21T09:31:44.867Z,23.07
2018-11-21T09:33:51.065Z,26.33
2018-11-21T09:35:57.126Z,24.70
2018-11-21T09:38:03.205Z,24.43
2018-11-21T09:40:12.205Z,23.77
2018-11-21T09:42:18.502Z,23.07
2018-11-21T09:44:24.581Z,22.43
2018-11-21T09:46:30.705Z,24.63
2018-11-21T09:48:36.870Z,25.70
2018-11-21T09:50:43.076Z,26.37
2018-11-21T09:52:50.419Z,24.57
2018-11-21T09:54:55.196Z,22.43
2018-11-21T09:57:01.301Z,28.33
2018-11-21T09:59:07.368Z,22.20
2018-11-21T10:02:08.418Z,25.20
2018-11-21T10:04:14.505Z,23.90
2018-11-21T10:06:24.411Z,21.87
2018-11-21T10:08:49.569Z,25.30
2018-11-21T10:10:55.591Z,24.50
2018-11-21T10:13:01.655Z,24.97
2018-11-21T10:15:08.870Z,23.40
2018-11-21T10:17:15.013Z,28.80
2018-11-21T10:19:21.135Z,25.63
2018-11-21T10:21:31.997Z,21.27
2018-11-21T10:23:38.247Z,23.00
2018-11-21T10:25:44.237Z,23.77
2018-11-21T10:27:50.516Z,23.47
2018-11-21T10:29:56.792Z,25.87
2018-11-21T10:32:02.868Z,25.80
2018-11-21T10:34:08.927Z,25.87
2018-11-21T10:36:14.971Z,27.73
2018-11-21T10:38:21.062Z,27.73
2018-11-21T10:40:27.147Z,37.00
2018-11-21T10:42:33.240Z,24.47
2018-11-21T10:44:39.481Z,30.03
2018-11-21T10:46:45.579Z,24.07
2018-11-21T10:48:51.680Z,23.80
2018-11-21T10:50:57.856Z,26.00
2018-11-21T10:53:03.966Z,25.40
2018-11-21T10:55:09.748Z,26.60
2018-11-21T10:57:15.805Z,28.87
2018-11-21T10:59:22.867Z,26.83
2018-11-21T11:01:46.790Z,25.70
2018-11-21T11:04:15.536Z,23.33
2018-11-21T11:06:40.453Z,26.43
2018-11-21T11:09:20.512Z,31.00
2018-11-21T11:11:44.091Z,24.53
2018-11-21T11:14:17.483Z,27.70
2018-11-21T11:16:37.172Z,27.73
2018-11-21T11:19:01.095Z,25.33
2018-11-21T11:21:25.372Z,27.10
2018-11-21T11:23:50.709Z,22.70
2018-11-21T11:26:14.663Z,26.60
2018-11-21T11:28:45.733Z,26.33
2018-11-21T11:31:19.845Z,22.53
2018-11-21T11:33:37.509Z,23.33
2018-11-21T11:36:01.126Z,22.83
2018-11-21T11:38:25.118Z,23.47
2018-11-21T11:40:59.146Z,24.10
2018-11-21T11:43:23.006Z,20.50
2018-11-21T11:45:48.118Z,21.33
2018-11-21T11:48:12.163Z,22.70
2018-11-21T11:50:49.442Z,21.50
2018-11-21T11:53:13.225Z,21.67
2018-11-21T11:55:44.189Z,22.10
2018-11-21T11:58:11.027Z,23.40
2018-11-21T12:00:36.283Z,21.37
2018-11-21T12:03:00.003Z,21.80
2018-11-21T12:05:25.382Z,21.70
2018-11-21T12:07:58.203Z,22.00
2018-11-21T12:10:26.077Z,24.73
2018-11-21T12:12:50.918Z,20.53
2018-11-21T12:15:14.970Z,23.60
2018-11-21T12:17:53.347Z,24.60
2018-11-21T12:20:08.469Z,23.43
2018-11-21T12:22:36.374Z,21.67
2018-11-21T12:25:19.808Z,22.80
2018-11-21T12:27:38.289Z,22.77
2018-11-21T12:30:12.719Z,19.23
2018-11-21T12:32:39.257Z,19.70
2018-11-21T12:35:00.498Z,25.60
2018-11-21T12:37:44.067Z,20.23
2018-11-21T12:40:15.272Z,20.80
2018-11-21T12:42:40.364Z,25.00
2018-11-21T12:45:04.632Z,21.63
2018-11-21T12:47:33.903Z,22.10
2018-11-21T12:49:58.979Z,21.93
2018-11-21T12:52:27.744Z,18.77
2018-11-21T12:54:56.478Z,22.17
2018-11-21T12:57:19.377Z,22.40
2018-11-21T12:59:43.393Z,19.73
2018-11-21T13:02:17.460Z,20.20
2018-11-21T13:04:54.607Z,22.17
2018-11-21T13:07:21.829Z,22.57
2018-11-21T13:09:38.961Z,23.53
2018-11-21T13:12:07.309Z,24.13
2018-11-21T13:14:32.429Z,22.63
2018-11-21T13:17:03.657Z,21.60
2018-11-21T13:19:43.971Z,20.07
2018-11-21T13:22:12.082Z,19.13
2018-11-21T13:24:43.229Z,22.87
2018-11-21T13:27:01.859Z,21.10
2018-11-21T13:29:31.847Z,21.90
2018-11-21T13:31:55.679Z,22.47
2018-11-21T13:34:20.782Z,25.90
2018-11-21T13:37:00.864Z,21.90
2018-11-21T13:39:37.647Z,22.53
2018-11-21T13:42:01.267Z,25.80
2018-11-21T13:44:25.123Z,23.60
2018-11-21T13:46:48.996Z,20.90
2018-11-21T13:49:04.481Z,20.00
2018-11-21T13:51:24.062Z,21.70
2018-11-21T13:53:49.125Z,20.87
2018-11-21T13:55:55.336Z,22.73
2018-11-21T13:58:01.418Z,24.13
2018-11-21T14:00:11.481Z,21.40
2018-11-21T14:02:17.843Z,21.13
2018-11-21T14:04:23.914Z,23.07
2018-11-21T14:06:30.183Z,25.73
2018-11-21T14:08:36.450Z,24.90
2018-11-21T14:10:43.446Z,25.20
2018-11-21T14:12:49.569Z,20.97
2018-11-21T14:14:55.636Z,25.00
2018-11-21T14:17:02.013Z,19.93
2018-11-21T14:19:08.344Z,21.67
2018-11-21T14:21:14.395Z,25.40
2018-11-21T14:23:20.542Z,18.30
2018-11-21T14:25:26.790Z,22.30
2018-11-21T14:27:32.880Z,22.20
2018-11-21T14:29:38.995Z,20.83
2018-11-21T14:31:45.472Z,19.33
2018-11-21T14:33:51.677Z,25.83
2018-11-21T14:35:58.150Z,23.50
2018-11-21T14:38:04.275Z,23.80
2018-11-21T14:40:14.169Z,22.67
2018-11-21T14:42:20.341Z,18.87
2018-11-21T14:44:26.491Z,22.93
2018-11-21T14:46:32.641Z,21.63
2018-11-21T14:48:39.529Z,21.83
2018-11-21T14:50:45.646Z,25.43
2018-11-21T14:52:52.011Z,23.47
2018-11-21T14:54:58.417Z,31.00
2018-11-21T14:57:04.679Z,25.90
2018-11-21T14:59:10.824Z,24.60
2018-11-21T15:01:17.166Z,23.67
2018-11-21T15:03:23.289Z,21.73
2018-11-21T15:05:29.437Z,26.17
2018-11-21T15:07:35.668Z,23.67
2018-11-21T15:09:41.904Z,22.60
2018-11-21T15:11:48.685Z,25.00
2018-11-21T15:13:54.802Z,26.77
2018-11-21T15:16:00.954Z,21.30
2018-11-21T15:18:07.068Z,24.30
2018-11-21T15:20:15.575Z,22.90
2018-11-21T15:22:21.705Z,24.47
2018-11-21T15:24:27.795Z,25.90
2018-11-21T15:26:33.999Z,22.70
2018-11-21T15:28:40.197Z,25.60
2018-11-21T15:30:46.280Z,27.20
2018-11-21T15:32:52.473Z,23.77
2018-11-21T15:34:58.568Z,26.53
2018-11-21T15:37:05.153Z,25.57
2018-11-21T15:39:12.119Z,27.87
2018-11-21T15:41:18.272Z,29.30
2018-11-21T15:43:24.486Z,31.10
2018-11-21T15:45:30.581Z,29.30
2018-11-21T15:47:36.907Z,31.67
2018-11-21T15:49:43.100Z,28.17
2018-11-21T15:51:49.301Z,29.27
2018-11-21T15:53:55.425Z,25.10
2018-11-21T15:56:01.567Z,26.57
2018-11-21T15:58:07.714Z,27.27
2018-11-21T16:00:20.508Z,31.13
2018-11-21T16:02:26.768Z,30.77
2018-11-21T16:04:33.009Z,25.80
2018-11-21T16:06:39.099Z,28.37
2018-11-21T16:08:45.288Z,32.73
2018-11-21T16:10:51.375Z,23.70
2018-11-21T16:12:56.931Z,23.87
2018-11-21T16:15:01.397Z,23.83
2018-11-21T16:17:07.776Z,26.97
2018-11-21T16:19:14.093Z,26.40
2018-11-21T16:21:20.415Z,23.67
2018-11-21T16:23:26.719Z,24.27
2018-11-21T16:25:32.871Z,28.97
2018-11-21T16:27:39.966Z,31.63
2018-11-21T16:29:46.099Z,22.60
2018-11-21T16:31:52.232Z,27.83
2018-11-21T16:33:58.462Z,27.00
2018-11-21T16:36:04.563Z,25.47
2018-11-21T16:38:10.848Z,23.10
2018-11-21T16:40:18.699Z,22.60
2018-11-21T16:42:24.950Z,26.00
2018-11-21T16:44:31.123Z,28.13
2018-11-21T16:46:37.391Z,25.50
2018-11-21T16:48:43.559Z,23.27
2018-11-21T16:50:50.227Z,28.60
2018-11-21T16:52:56.426Z,21.63
2018-11-21T16:55:02.701Z,25.57
2018-11-21T16:57:08.946Z,22.40
2018-11-21T16:59:15.608Z,23.70
2018-11-21T17:01:21.828Z,22.43
2018-11-21T17:03:28.047Z,24.80
2018-11-21T17:05:34.286Z,24.47
2018-11-21T17:07:40.876Z,22.77
2018-11-21T17:09:47.034Z,31.30
2018-11-21T17:11:53.245Z,21.20
2018-11-21T17:13:59.474Z,23.03
2018-11-21T17:16:06.414Z,22.17
2018-11-21T17:18:13.435Z,25.40
2018-11-21T17:20:30.965Z,23.33
2018-11-21T17:22:37.980Z,23.87
2018-11-21T17:24:45.440Z,21.80
2018-11-21T17:26:51.556Z,25.37
2018-11-21T17:28:57.699Z,23.90
2018-11-21T17:31:04.096Z,26.33
2018-11-21T17:33:10.935Z,29.50
2018-11-21T17:35:17.889Z,24.23
2018-11-21T17:37:24.047Z,23.83
2018-11-21T17:39:30.585Z,23.27
2018-11-21T17:41:36.917Z,23.37
2018-11-21T17:43:43.045Z,27.07
2018-11-21T17:45:49.438Z,23.00
2018-11-21T17:47:55.687Z,22.17
2018-11-21T17:50:02.253Z,24.50
2018-11-21T17:52:08.353Z,23.77
2018-11-21T17:54:14.638Z,26.50
2018-11-21T17:56:20.879Z,22.63
2018-11-21T17:58:26.966Z,25.20
2018-11-21T18:00:33.434Z,23.70
2018-11-21T18:02:39.607Z,23.70
2018-11-21T18:04:45.743Z,27.17
2018-11-21T18:06:52.360Z,23.67
2018-11-21T18:09:01.436Z,21.80
2018-11-21T18:11:07.718Z,26.13
2018-11-21T18:13:14.524Z,26.07
2018-11-21T18:15:21.106Z,28.50
2018-11-21T18:17:27.371Z,24.40
2018-11-21T18:19:31.986Z,21.10
2018-11-21T18:21:38.425Z,24.90
2018-11-21T18:23:44.952Z,33.60
2018-11-21T18:25:51.216Z,27.13
2018-11-21T18:27:57.765Z,28.00
2018-11-21T18:30:04.651Z,22.60
2018-11-21T18:32:11.031Z,24.10
2018-11-21T18:34:17.275Z,23.80
2018-11-21T18:36:23.462Z,23.90
2018-11-21T18:38:29.667Z,24.90
2018-11-21T18:40:35.888Z,24.47
2018-11-21T18:42:42.973Z,24.27
2018-11-21T18:44:49.133Z,29.60
2018-11-21T18:46:55.464Z,21.40
2018-11-21T18:49:02.174Z,22.30
2018-11-21T18:51:08.390Z,24.60
2018-11-21T18:53:14.837Z,24.17
2018-11-21T18:55:27.031Z,22.90
2018-11-21T18:58:16.292Z,24.63
2018-11-21T19:00:27.091Z,25.90
2018-11-21T19:02:33.405Z,29.00
2018-11-21T19:04:39.516Z,29.50
2018-11-21T19:06:45.652Z,30.63
2018-11-21T19:08:51.778Z,28.30
2018-11-21T19:10:58.226Z,28.20
2018-11-21T19:13:04.368Z,30.03
2018-11-21T19:15:13.650Z,26.33
2018-11-21T19:17:20.362Z,26.67
2018-11-21T19:19:26.503Z,29.33
2018-11-21T19:21:31.044Z,26.70
2018-11-21T19:23:37.259Z,28.43
2018-11-21T19:25:43.523Z,24.83
2018-11-21T19:27:49.793Z,27.07
2018-11-21T19:29:55.936Z,29.30
2018-11-21T19:32:02.219Z,29.57
2018-11-21T19:34:11.993Z,26.27
2018-11-21T19:36:19.294Z,25.57
2018-11-21T19:38:27.089Z,30.03
2018-11-21T19:40:33.560Z,25.90
2018-11-21T19:42:40.457Z,27.60
2018-11-21T19:44:46.960Z,24.37
2018-11-21T19:46:53.214Z,25.90
2018-11-21T19:48:59.934Z,22.53
2018-11-21T19:51:07.609Z,25.73
2018-11-21T19:53:13.814Z,28.60
2018-11-21T19:55:21.807Z,29.87
2018-11-21T19:57:28.078Z,26.13
2018-11-21T19:59:34.903Z,26.60
2018-11-21T20:01:41.817Z,24.70
2018-11-21T20:03:48.425Z,23.47
2018-11-21T20:05:55.182Z,27.00
2018-11-21T20:08:02.073Z,32.37
2018-11-21T20:10:09.642Z,28.73
2018-11-21T20:12:16.548Z,29.57
2018-11-21T20:14:22.955Z,34.87
2018-11-21T20:16:29.114Z,23.20
2018-11-21T20:18:35.468Z,25.53
2018-11-21T20:20:41.663Z,29.17
2018-11-21T20:22:49.196Z,25.50
2018-11-21T20:24:55.752Z,27.10
2018-11-21T20:27:02.004Z,28.67
2018-11-21T20:29:08.632Z,25.73
2018-11-21T20:31:15.207Z,26.47
2018-11-21T20:33:21.418Z,25.20
2018-11-21T20:35:27.593Z,23.97
2018-11-21T20:37:34.021Z,24.53
2018-11-21T20:39:46.560Z,29.00
2018-11-21T20:41:46.552Z,23.03
2018-11-21T20:43:53.133Z,31.30
2018-11-21T20:45:59.330Z,29.37
2018-11-21T20:48:05.801Z,29.67
2018-11-21T20:50:12.163Z,23.63
2018-11-21T20:52:18.333Z,26.80
2018-11-21T20:54:24.689Z,25.87
2018-11-21T20:56:30.996Z,28.40
2018-11-21T20:58:37.297Z,30.50
2018-11-21T21:00:43.463Z,26.93
2018-11-21T21:02:50.097Z,28.80
2018-11-21T21:04:56.360Z,27.17
2018-11-21T21:07:02.512Z,27.73
2018-11-21T21:09:13.358Z,28.20
2018-11-21T21:11:19.744Z,26.87
2018-11-21T21:13:25.959Z,26.07
2018-11-21T21:15:32.096Z,26.90
2018-11-21T21:17:38.595Z,31.30
2018-11-21T21:19:44.696Z,28.73
2018-11-21T21:21:51.259Z,29.30
2018-11-21T21:23:58.272Z,25.03
2018-11-21T21:26:04.628Z,25.17
2018-11-21T21:28:10.803Z,26.17
2018-11-21T21:30:22.513Z,25.73
2018-11-21T21:32:28.684Z,28.63
2018-11-21T21:34:34.808Z,27.17
2018-11-21T21:36:41.022Z,26.77
2018-11-21T21:38:47.498Z,30.83
2018-11-21T21:40:53.761Z,27.03
2018-11-21T21:42:59.837Z,30.10
2018-11-21T21:45:07.918Z,29.97
2018-11-21T21:47:14.062Z,25.97
2018-11-21T21:49:20.233Z,24.67
2018-11-21T21:51:26.544Z,31.87
2018-11-21T21:53:32.619Z,25.80
2018-11-21T21:55:38.732Z,27.30
2018-11-21T21:57:44.862Z,26.50
2018-11-21T21:59:51.389Z,25.87
2018-11-21T22:01:57.521Z,26.63
2018-11-21T22:04:03.851Z,24.93
2018-11-21T22:06:10.127Z,28.20
2018-11-21T22:08:16.375Z,25.43
2018-11-21T22:10:22.849Z,26.90
2018-11-21T22:12:28.973Z,28.37
2018-11-21T22:14:35.111Z,29.10
2018-11-21T22:16:41.747Z,28.67
2018-11-21T22:18:48.010Z,27.07
2018-11-21T22:20:54.070Z,27.07
2018-11-21T22:23:00.223Z,29.67
2018-11-21T22:25:04.876Z,26.10
2018-11-21T22:27:10.983Z,29.50
2018-11-21T22:29:17.194Z,26.37
2018-11-21T22:31:23.422Z,25.07
2018-11-21T22:33:29.534Z,23.37
2018-11-21T22:35:37.627Z,25.30
2018-11-21T22:37:44.296Z,23.30
2018-11-21T22:39:50.222Z,26.00
2018-11-21T22:41:56.324Z,26.97
2018-11-21T22:44:02.447Z,26.67
2018-11-21T22:46:08.585Z,25.03
2018-11-21T22:48:15.014Z,25.13
2018-11-21T22:50:22.300Z,30.33
2018-11-21T22:52:29.137Z,30.77
2018-11-21T22:54:35.214Z,26.90
2018-11-21T22:56:41.323Z,31.40
2018-11-21T22:58:47.847Z,30.10
2018-11-21T23:00:54.327Z,28.70
2018-11-21T23:03:00.688Z,24.67
2018-11-21T23:05:08.811Z,26.10
2018-11-21T23:07:14.885Z,27.20
2018-11-21T23:09:20.990Z,28.33
2018-11-21T23:11:27.092Z,27.77
2018-11-21T23:13:33.221Z,26.00
2018-11-21T23:15:39.862Z,25.03
2018-11-21T23:17:45.930Z,24.63
2018-11-21T23:19:52.464Z,30.10
2018-11-21T23:21:58.754Z,31.40
2018-11-21T23:24:04.883Z,30.87
2018-11-21T23:26:11.577Z,27.13
2018-11-21T23:28:17.647Z,27.97
2018-11-21T23:30:25.039Z,26.70
2018-11-21T23:32:31.454Z,27.50
2018-11-21T23:34:37.898Z,29.47
2018-11-21T23:36:44.296Z,28.50
2018-11-21T23:38:50.361Z,25.73
2018-11-21T23:40:56.447Z,28.77
2018-11-21T23:43:02.968Z,31.90
2018-11-21T23:45:11.097Z,27.30
2018-11-21T23:47:17.209Z,26.33
2018-11-21T23:49:23.506Z,26.10
2018-11-21T23:51:29.558Z,28.43
2018-11-21T23:53:36.025Z,26.30
2018-11-21T23:55:42.423Z,29.83
2018-11-21T23:57:48.513Z,29.10
2018-11-21T23:59:54.754Z,29.73
